createdAt,value
2022-09-17T00:00:03.206Z,960.92
2022-09-17T00:15:05.164Z,960.91
2022-09-17T00:30:07.113Z,960.78
2022-09-17T00:45:09.022Z,960.72
2022-09-17T01:00:10.953Z,960.42
2022-09-17T01:15:12.910Z,960.66
2022-09-17T01:30:14.833Z,960.68
2022-09-17T01:45:16.751Z,960.82
2022-09-17T02:00:18.810Z,960.57
2022-09-17T02:15:20.723Z,960.56
2022-09-17T02:30:22.637Z,961.06
2022-09-17T02:45:24.519Z,960.99
2022-09-17T03:00:26.451Z,961.13
2022-09-17T03:15:28.373Z,961.5
2022-09-17T03:30:30.322Z,961.42
2022-09-17T03:45:32.230Z,961.22
2022-09-17T04:00:34.110Z,960.94
2022-09-17T04:15:36.057Z,961.15
2022-09-17T04:30:37.939Z,961.53
2022-09-17T04:45:39.884Z,961.42
2022-09-17T05:00:41.943Z,961.35
2022-09-17T05:15:44.067Z,961.34
2022-09-17T05:30:46.120Z,961.39
2022-09-17T05:45:48.075Z,961.45
2022-09-17T06:00:50.014Z,961.42
2022-09-17T06:15:52.047Z,961.42
2022-09-17T06:30:54.009Z,961.39
2022-09-17T06:45:55.912Z,961.37
2022-09-17T07:00:57.949Z,961.3
2022-09-17T07:16:00.032Z,961.36
2022-09-17T07:31:02.218Z,961.31
2022-09-17T07:46:04.264Z,961.39
2022-09-17T08:01:06.232Z,961.38
2022-09-17T08:16:08.238Z,961.37
2022-09-17T08:31:10.324Z,961.42
2022-09-17T08:46:12.582Z,961.48
2022-09-17T09:01:14.552Z,961.48
2022-09-17T09:16:16.585Z,961.54
2022-09-17T09:31:18.654Z,961.56
2022-09-17T09:46:20.588Z,961.59
2022-09-17T10:01:22.651Z,961.47
2022-09-17T10:16:24.653Z,961.73
2022-09-17T10:31:26.740Z,961.85
2022-09-17T10:46:28.783Z,961.83
2022-09-17T11:01:30.840Z,961.87
2022-09-17T11:16:32.913Z,961.96
2022-09-17T11:31:35.050Z,962.06
2022-09-17T11:46:37.059Z,962.1
2022-09-17T12:01:39.124Z,962.17
2022-09-17T12:16:41.096Z,962.24
2022-09-17T12:31:43.080Z,962.27
2022-09-17T12:46:45.172Z,962.25
2022-09-17T13:01:47.239Z,962.24
2022-09-17T13:16:49.238Z,962.3
2022-09-17T13:31:51.256Z,962.47
2022-09-17T13:46:53.316Z,962.56
2022-09-17T14:01:55.276Z,962.76
2022-09-17T14:16:57.209Z,962.66
2022-09-17T14:31:59.207Z,962.69
2022-09-17T14:47:01.167Z,962.75
2022-09-17T15:02:03.251Z,962.82
2022-09-17T15:17:05.178Z,962.72
2022-09-17T15:32:07.111Z,962.78
2022-09-17T15:47:08.998Z,962.76
2022-09-17T16:02:11.267Z,962.73
2022-09-17T16:17:13.263Z,962.69
2022-09-17T16:32:15.216Z,962.57
2022-09-17T16:47:17.125Z,962.5
2022-09-17T17:02:19.029Z,962.36
2022-09-17T17:17:20.942Z,962.34
2022-09-17T17:32:22.902Z,962.24
2022-09-17T17:47:24.832Z,962.11
2022-09-17T18:02:26.958Z,961.95
2022-09-17T18:17:28.978Z,961.85
2022-09-17T18:32:30.922Z,961.59
2022-09-17T18:47:32.875Z,961.34
2022-09-17T19:02:34.798Z,961.24
2022-09-17T19:17:36.738Z,961.07
2022-09-17T19:32:43.048Z,960.83
2022-09-17T19:47:45.165Z,960.66
2022-09-17T20:02:47.201Z,960.44
2022-09-17T20:17:49.160Z,960.23
2022-09-17T20:32:51.040Z,960.01
2022-09-17T20:47:52.995Z,959.8
2022-09-17T21:02:54.904Z,959.68
2022-09-17T21:17:56.817Z,959.5
2022-09-17T21:32:58.789Z,959.37
2022-09-17T21:48:00.780Z,959.17
2022-09-17T22:03:02.744Z,958.97
2022-09-17T22:18:05.476Z,958.8
2022-09-17T22:33:09.503Z,958.68
2022-09-17T22:48:11.413Z,958.57
2022-09-17T23:03:13.433Z,958.46
2022-09-17T23:18:15.421Z,958.35
2022-09-17T23:33:17.378Z,958.2
2022-09-17T23:48:19.326Z,958.12
